createdAt,value
2023-04-15T00:01:08.818Z,28.06
2023-04-15T00:03:36.478Z,27.53
2023-04-15T00:06:04.012Z,28.21
2023-04-15T00:08:32.290Z,27.73
2023-04-15T00:11:05.815Z,27.38
2023-04-15T00:13:34.305Z,27.97
2023-04-15T00:16:01.782Z,28.60
2023-04-15T00:18:30.122Z,28.15
2023-04-15T00:20:57.361Z,28.40
2023-04-15T00:23:44.121Z,28.23
2023-04-15T00:26:11.347Z,28.68
2023-04-15T00:28:38.771Z,28.65
2023-04-15T00:31:05.986Z,28.38
2023-04-15T00:33:33.542Z,28.57
2023-04-15T00:36:00.651Z,29.01
2023-04-15T00:38:28.231Z,28.97
2023-04-15T00:40:56.629Z,29.11
2023-04-15T00:43:23.819Z,29.00
2023-04-15T00:45:53.764Z,28.78
2023-04-15T00:48:21.011Z,29.44
2023-04-15T00:50:48.069Z,29.56
2023-04-15T00:53:15.126Z,29.26
2023-04-15T00:55:42.666Z,29.59
2023-04-15T00:58:09.862Z,29.44
2023-04-15T01:00:37.694Z,29.60
2023-04-15T01:03:04.905Z,29.49
2023-04-15T01:05:32.557Z,29.96
2023-04-15T01:07:59.672Z,29.84
2023-04-15T01:10:27.453Z,30.19
2023-04-15T01:12:54.955Z,29.74
2023-04-15T01:15:22.055Z,29.79
2023-04-15T01:17:49.580Z,30.09
2023-04-15T01:20:17.318Z,30.25
2023-04-15T01:22:45.319Z,30.20
2023-04-15T01:25:16.595Z,29.83
2023-04-15T01:27:43.794Z,29.43
2023-04-15T01:30:11.635Z,29.76
2023-04-15T01:32:38.952Z,29.72
2023-04-15T01:35:24.826Z,29.82
2023-04-15T01:37:52.709Z,29.67
2023-04-15T01:40:19.789Z,29.59
2023-04-15T01:42:48.155Z,30.07
2023-04-15T01:45:17.626Z,29.89
2023-04-15T01:47:46.027Z,29.41
2023-04-15T01:50:14.446Z,29.67
2023-04-15T01:52:43.526Z,30.04
2023-04-15T01:55:12.638Z,29.69
2023-04-15T01:57:41.263Z,30.23
2023-04-15T02:00:10.050Z,30.21
2023-04-15T02:02:44.960Z,30.57
2023-04-15T02:05:13.470Z,29.94
2023-04-15T02:07:43.640Z,30.44
2023-04-15T02:10:13.675Z,30.56
2023-04-15T02:12:42.265Z,30.43
2023-04-15T02:15:11.036Z,30.99
2023-04-15T02:17:39.463Z,30.93
2023-04-15T02:20:10.808Z,30.47
2023-04-15T02:22:39.305Z,30.78
2023-04-15T02:25:09.510Z,30.75
2023-04-15T02:27:38.484Z,30.60
2023-04-15T02:30:09.372Z,30.87
2023-04-15T02:32:38.425Z,31.27
2023-04-15T02:35:08.932Z,30.75
2023-04-15T02:37:43.579Z,30.80
2023-04-15T02:40:13.538Z,30.93
2023-04-15T02:42:43.039Z,30.93
2023-04-15T02:45:14.288Z,31.01
2023-04-15T02:47:44.588Z,30.64
2023-04-15T02:50:14.157Z,30.32
2023-04-15T02:52:44.739Z,30.23
2023-04-15T02:55:13.425Z,30.97
2023-04-15T02:57:42.049Z,30.88
2023-04-15T03:00:12.660Z,30.89
2023-04-15T03:02:44.813Z,30.83
2023-04-15T03:05:14.639Z,30.61
2023-04-15T03:07:52.088Z,31.26
2023-04-15T03:10:21.527Z,31.57
2023-04-15T03:12:50.100Z,31.40
2023-04-15T03:15:21.384Z,30.90
2023-04-15T03:17:53.351Z,30.99
2023-04-15T03:20:21.884Z,31.31
2023-04-15T03:22:50.662Z,31.21
2023-04-15T03:25:21.149Z,31.18
2023-04-15T03:27:49.518Z,31.24
2023-04-15T03:30:18.737Z,30.42
2023-04-15T03:32:47.715Z,30.87
2023-04-15T03:35:16.606Z,30.54
2023-04-15T03:37:45.032Z,30.96
2023-04-15T03:40:13.444Z,30.66
2023-04-15T03:42:41.815Z,30.47
2023-04-15T03:45:10.969Z,30.22
2023-04-15T03:47:39.350Z,30.58
2023-04-15T03:50:08.474Z,29.54
2023-04-15T03:52:36.874Z,29.75
2023-04-15T03:55:05.626Z,30.23
2023-04-15T03:57:38.158Z,29.37
2023-04-15T04:00:07.847Z,28.99
2023-04-15T04:02:40.410Z,28.77
2023-04-15T04:05:09.449Z,29.55
2023-04-15T04:07:37.850Z,28.85
2023-04-15T04:10:06.974Z,29.47
2023-04-15T04:12:35.396Z,29.37
2023-04-15T04:15:04.147Z,29.17
2023-04-15T04:17:32.892Z,28.41
2023-04-15T04:20:01.320Z,29.05
2023-04-15T04:22:29.725Z,29.08
2023-04-15T04:24:59.556Z,28.21
2023-04-15T04:27:27.902Z,28.80
2023-04-15T04:29:56.506Z,27.25
2023-04-15T04:32:25.009Z,28.23
2023-04-15T04:34:53.430Z,28.01
2023-04-15T04:37:21.850Z,27.62
2023-04-15T04:39:50.366Z,28.13
2023-04-15T04:42:18.770Z,28.59
2023-04-15T04:44:47.327Z,28.75
2023-04-15T04:47:15.746Z,28.20
2023-04-15T04:49:44.174Z,29.15
2023-04-15T04:52:13.070Z,29.05
2023-04-15T04:54:41.713Z,29.50
2023-04-15T04:57:10.075Z,28.38
2023-04-15T04:59:38.388Z,28.73
2023-04-15T05:02:07.442Z,28.21
2023-04-15T05:04:37.117Z,28.03
2023-04-15T05:07:05.451Z,27.80
2023-04-15T05:09:36.216Z,28.84
2023-04-15T05:12:05.099Z,28.82
2023-04-15T05:14:33.481Z,28.44
2023-04-15T05:17:01.850Z,29.57
2023-04-15T05:19:30.494Z,28.60
2023-04-15T05:21:58.843Z,28.26
2023-04-15T05:24:27.441Z,27.84
2023-04-15T05:26:56.897Z,27.87
2023-04-15T05:29:25.232Z,28.37
2023-04-15T05:31:53.551Z,28.45
2023-04-15T05:34:21.859Z,28.72
2023-04-15T05:36:50.606Z,27.28
2023-04-15T05:39:19.018Z,28.06
2023-04-15T05:41:47.387Z,28.24
2023-04-15T05:44:15.779Z,27.47
2023-04-15T05:46:44.193Z,27.87
2023-04-15T05:49:12.592Z,27.75
2023-04-15T05:51:41.535Z,27.35
2023-04-15T05:54:09.968Z,27.28
2023-04-15T05:56:38.298Z,28.11
2023-04-15T05:59:06.780Z,27.96
2023-04-15T06:01:35.665Z,28.18
2023-04-15T06:04:04.153Z,27.74
2023-04-15T06:06:32.781Z,27.44
2023-04-15T06:09:01.325Z,26.81
2023-04-15T06:11:29.901Z,26.85
2023-04-15T06:13:58.218Z,27.46
2023-04-15T06:16:27.444Z,27.54
2023-04-15T06:18:55.903Z,27.97
2023-04-15T06:21:24.354Z,28.05
2023-04-15T06:23:53.427Z,28.09
2023-04-15T06:26:22.132Z,28.72
2023-04-15T06:28:50.700Z,27.69
2023-04-15T06:31:19.147Z,26.50
2023-04-15T06:33:47.628Z,27.17
2023-04-15T06:36:15.987Z,26.63
2023-04-15T06:38:44.349Z,26.50
2023-04-15T06:41:12.915Z,26.51
2023-04-15T06:43:41.337Z,26.72
2023-04-15T06:46:09.730Z,26.44
2023-04-15T06:48:38.209Z,25.69
2023-04-15T06:51:06.727Z,25.60
2023-04-15T06:53:35.738Z,26.02
2023-04-15T06:56:04.193Z,26.56
2023-04-15T06:58:32.542Z,26.07
2023-04-15T07:01:01.305Z,25.91
2023-04-15T07:03:31.443Z,25.49
2023-04-15T07:06:01.853Z,26.73
2023-04-15T07:08:30.652Z,24.79
2023-04-15T07:10:59.059Z,26.42
2023-04-15T07:13:27.748Z,25.95
2023-04-15T07:15:56.177Z,26.06
2023-04-15T07:18:24.578Z,25.47
2023-04-15T07:20:52.998Z,24.91
2023-04-15T07:23:21.346Z,25.05
2023-04-15T07:25:49.682Z,24.71
2023-04-15T07:28:18.399Z,24.44
2023-04-15T07:30:46.815Z,24.33
2023-04-15T07:33:17.952Z,24.50
2023-04-15T07:35:46.910Z,23.70
2023-04-15T07:38:15.240Z,23.78
2023-04-15T07:40:43.771Z,24.13
2023-04-15T07:43:13.582Z,24.25
2023-04-15T07:45:41.980Z,23.83
2023-04-15T07:48:10.322Z,23.92
2023-04-15T07:50:38.753Z,23.58
2023-04-15T07:53:07.633Z,23.46
2023-04-15T07:55:36.066Z,23.02
2023-04-15T07:58:04.568Z,23.03
2023-04-15T08:00:32.882Z,23.80
2023-04-15T08:03:01.482Z,22.94
2023-04-15T08:05:30.409Z,22.64
2023-04-15T08:07:58.858Z,21.99
2023-04-15T08:10:27.499Z,22.47
2023-04-15T08:12:56.878Z,22.52
2023-04-15T08:15:26.758Z,22.12
2023-04-15T08:17:55.165Z,21.98
2023-04-15T08:20:23.783Z,21.95
2023-04-15T08:22:52.752Z,22.10
2023-04-15T08:25:21.686Z,21.92
2023-04-15T08:27:50.127Z,21.65
2023-04-15T08:30:19.488Z,22.49
2023-04-15T08:32:48.117Z,21.38
2023-04-15T08:35:16.838Z,22.38
2023-04-15T08:37:45.395Z,22.00
2023-04-15T08:40:14.278Z,20.82
2023-04-15T08:42:48.373Z,20.87
2023-04-15T08:45:18.469Z,21.08
2023-04-15T08:47:49.470Z,21.22
2023-04-15T08:50:18.948Z,21.25
2023-04-15T08:52:47.358Z,21.35
2023-04-15T08:55:16.370Z,20.86
2023-04-15T08:57:45.047Z,20.92
2023-04-15T09:00:14.289Z,21.45
2023-04-15T09:02:43.425Z,21.10
2023-04-15T09:05:11.907Z,20.57
2023-04-15T09:07:40.206Z,20.97
2023-04-15T09:10:10.049Z,20.22
2023-04-15T09:12:38.517Z,21.10
2023-04-15T09:15:08.947Z,20.43
2023-04-15T09:17:43.263Z,21.28
2023-04-15T09:20:14.238Z,20.31
2023-04-15T09:22:43.594Z,20.46
2023-04-15T09:25:34.994Z,19.55
2023-04-15T09:28:04.260Z,19.97
2023-04-15T09:30:33.529Z,21.53
2023-04-15T09:33:03.156Z,19.23
2023-04-15T09:35:31.634Z,20.84
2023-04-15T09:38:08.072Z,19.95
2023-04-15T09:40:37.594Z,19.71
2023-04-15T09:43:07.178Z,20.06
2023-04-15T09:45:36.689Z,19.67
2023-04-15T09:48:29.110Z,19.88
2023-04-15T09:51:01.946Z,18.92
2023-04-15T09:53:34.388Z,19.21
2023-04-15T09:56:03.399Z,19.73
2023-04-15T09:58:33.747Z,19.80
2023-04-15T10:01:05.131Z,20.13
2023-04-15T10:03:37.747Z,19.97
2023-04-15T10:06:06.405Z,19.17
2023-04-15T10:08:35.073Z,19.86
2023-04-15T10:11:05.152Z,19.58
2023-04-15T10:13:36.217Z,20.14
2023-04-15T10:16:10.983Z,18.22
2023-04-15T10:18:43.412Z,18.55
2023-04-15T10:21:14.002Z,19.38
2023-04-15T10:23:42.872Z,19.14
2023-04-15T10:26:12.817Z,19.62
2023-04-15T10:28:42.190Z,19.99
2023-04-15T10:31:15.188Z,19.41
2023-04-15T10:33:44.942Z,18.85
2023-04-15T10:36:13.964Z,18.41
2023-04-15T10:38:45.779Z,18.72
2023-04-15T10:41:28.073Z,19.20
2023-04-15T10:44:04.742Z,18.83
2023-04-15T10:46:40.509Z,18.96
2023-04-15T10:49:13.261Z,18.32
2023-04-15T10:51:44.509Z,18.41
2023-04-15T10:54:26.036Z,17.99
2023-04-15T10:57:06.649Z,18.44
2023-04-15T10:59:59.719Z,18.55
2023-04-15T11:02:47.650Z,18.81
2023-04-15T11:05:17.450Z,18.59
2023-04-15T11:07:55.407Z,18.50
2023-04-15T11:10:26.637Z,18.81
2023-04-15T11:12:58.553Z,18.56
2023-04-15T11:15:33.922Z,18.61
2023-04-15T11:18:16.613Z,19.13
2023-04-15T11:20:55.024Z,18.25
2023-04-15T11:23:39.881Z,18.51
2023-04-15T11:26:11.934Z,18.71
2023-04-15T11:28:42.859Z,18.16
2023-04-15T11:31:12.400Z,18.12
2023-04-15T11:33:59.199Z,18.19
2023-04-15T11:36:32.240Z,18.06
2023-04-15T11:39:01.023Z,18.70
2023-04-15T11:41:29.490Z,18.44
2023-04-15T11:43:57.845Z,17.98
2023-04-15T11:46:31.910Z,17.81
2023-04-15T11:49:00.439Z,17.98
2023-04-15T11:51:33.555Z,18.59
2023-04-15T11:54:01.300Z,18.23
2023-04-15T11:56:29.041Z,19.05
2023-04-15T11:58:59.886Z,19.03
2023-04-15T12:01:36.567Z,18.96
2023-04-15T12:04:12.174Z,18.00
2023-04-15T12:06:39.645Z,18.80
2023-04-15T12:09:06.813Z,18.28
2023-04-15T12:11:41.675Z,18.51
2023-04-15T12:14:20.234Z,19.03
2023-04-15T12:16:58.126Z,17.89
2023-04-15T12:19:30.315Z,18.73
2023-04-15T12:22:00.993Z,18.76
2023-04-15T12:24:31.184Z,18.44
2023-04-15T12:27:03.729Z,18.77
2023-04-15T12:29:31.271Z,19.31
2023-04-15T12:32:05.147Z,18.15
2023-04-15T12:34:41.137Z,19.06
2023-04-15T12:37:10.355Z,19.48
2023-04-15T12:39:39.843Z,18.48
2023-04-15T12:42:07.831Z,18.15
2023-04-15T12:44:36.390Z,18.44
2023-04-15T12:47:03.704Z,19.23
2023-04-15T12:49:31.170Z,18.61
2023-04-15T12:52:00.297Z,18.16
2023-04-15T12:54:28.837Z,18.45
2023-04-15T12:56:56.232Z,18.78
2023-04-15T12:59:24.294Z,18.99
2023-04-15T13:01:53.515Z,18.14
2023-04-15T13:04:22.077Z,18.38
2023-04-15T13:06:49.596Z,18.47
2023-04-15T13:09:16.923Z,18.24
2023-04-15T13:11:44.185Z,18.87
2023-04-15T13:14:14.272Z,19.25
2023-04-15T13:16:41.757Z,18.27
2023-04-15T13:19:09.136Z,18.71
2023-04-15T13:21:36.806Z,19.08
2023-04-15T13:24:07.255Z,19.59
2023-04-15T13:26:34.649Z,19.10
2023-04-15T13:29:02.045Z,19.39
2023-04-15T13:31:29.261Z,18.53
2023-04-15T13:33:57.638Z,18.95
2023-04-15T13:36:24.990Z,19.19
2023-04-15T13:38:52.198Z,18.32
2023-04-15T13:41:20.203Z,18.79
2023-04-15T13:43:47.440Z,19.27
2023-04-15T13:46:14.832Z,19.05
2023-04-15T13:48:42.306Z,19.00
2023-04-15T13:51:09.723Z,19.78
2023-04-15T13:53:38.890Z,19.25
2023-04-15T13:56:08.612Z,19.09
2023-04-15T13:58:37.500Z,19.73
2023-04-15T14:01:07.005Z,18.60
2023-04-15T14:03:36.812Z,19.54
2023-04-15T14:06:05.827Z,19.04
2023-04-15T14:08:33.764Z,19.18
2023-04-15T14:11:01.339Z,19.04
2023-04-15T14:13:28.649Z,19.20
2023-04-15T14:15:57.296Z,19.37
2023-04-15T14:18:24.596Z,19.60
2023-04-15T14:20:51.966Z,19.73
2023-04-15T14:23:19.527Z,19.17
2023-04-15T14:25:48.394Z,20.04
2023-04-15T14:28:16.345Z,19.71
2023-04-15T14:30:43.847Z,19.20
2023-04-15T14:33:11.389Z,19.83
2023-04-15T14:35:39.254Z,19.58
2023-04-15T14:38:10.750Z,19.80
2023-04-15T14:40:38.306Z,19.74
2023-04-15T14:43:05.641Z,19.34
2023-04-15T14:45:32.890Z,19.48
2023-04-15T14:48:00.324Z,19.79
2023-04-15T14:50:28.279Z,19.61
2023-04-15T14:52:55.573Z,19.61
2023-04-15T14:55:22.777Z,19.57
2023-04-15T14:57:49.969Z,19.92
2023-04-15T15:00:17.226Z,19.51
2023-04-15T15:02:44.654Z,19.63
2023-04-15T15:05:12.460Z,20.73
2023-04-15T15:07:41.222Z,19.20
2023-04-15T15:10:09.053Z,20.71
2023-04-15T15:12:36.437Z,19.69
2023-04-15T15:15:15.641Z,19.99
2023-04-15T15:17:54.387Z,20.04
2023-04-15T15:20:22.137Z,19.94
2023-04-15T15:22:49.421Z,19.53
2023-04-15T15:25:16.939Z,19.69
2023-04-15T15:27:44.325Z,19.70
2023-04-15T15:30:12.039Z,20.28
2023-04-15T15:32:43.019Z,20.06
2023-04-15T15:35:11.271Z,19.78
2023-04-15T15:37:38.536Z,20.27
2023-04-15T15:40:06.703Z,20.10
2023-04-15T15:42:34.451Z,19.67
2023-04-15T15:45:03.290Z,20.29
2023-04-15T15:47:32.328Z,20.07
2023-04-15T15:50:02.634Z,19.80
2023-04-15T15:52:31.931Z,20.23
2023-04-15T15:54:59.124Z,20.24
2023-04-15T15:57:26.297Z,20.44
2023-04-15T16:00:04.839Z,21.18
2023-04-15T16:03:02.393Z,20.63
2023-04-15T16:05:25.157Z,20.12
2023-04-15T16:07:52.348Z,19.70
2023-04-15T16:10:19.521Z,20.65
2023-04-15T16:12:47.714Z,20.13
2023-04-15T16:15:15.019Z,19.79
2023-04-15T16:17:42.131Z,20.49
2023-04-15T16:20:09.879Z,20.19
2023-04-15T16:22:37.384Z,20.30
2023-04-15T16:25:04.782Z,20.27
2023-04-15T16:27:33.826Z,20.52
2023-04-15T16:30:02.786Z,20.81
2023-04-15T16:32:31.848Z,20.35
2023-04-15T16:34:59.103Z,20.98
2023-04-15T16:37:26.215Z,20.75
2023-04-15T16:39:53.356Z,21.14
2023-04-15T16:42:20.546Z,20.81
2023-04-15T16:44:47.708Z,21.13
2023-04-15T16:47:14.956Z,21.39
2023-04-15T16:49:42.176Z,21.23
2023-04-15T16:52:09.433Z,21.25
2023-04-15T16:54:41.358Z,21.52
2023-04-15T16:57:08.980Z,21.77
2023-04-15T16:59:36.129Z,21.82
2023-04-15T17:02:03.420Z,21.80
2023-04-15T17:04:30.937Z,22.24
2023-04-15T17:06:58.471Z,21.58
2023-04-15T17:09:25.596Z,21.89
2023-04-15T17:11:52.852Z,21.60
2023-04-15T17:14:20.043Z,21.81
2023-04-15T17:16:48.041Z,22.05
2023-04-15T17:19:15.364Z,21.96
2023-04-15T17:21:55.464Z,22.26
2023-04-15T17:24:24.044Z,22.38
2023-04-15T17:26:57.644Z,22.36
2023-04-15T17:29:27.179Z,22.31
2023-04-15T17:31:58.600Z,22.70
2023-04-15T17:34:50.056Z,22.62
2023-04-15T17:37:38.325Z,22.99
2023-04-15T17:40:25.379Z,22.92
2023-04-15T17:43:12.523Z,23.04
2023-04-15T17:45:59.768Z,23.08
2023-04-15T17:48:47.716Z,23.00
2023-04-15T17:51:34.746Z,23.58
2023-04-15T17:54:27.653Z,23.43
2023-04-15T17:57:14.973Z,23.30
2023-04-15T18:00:02.288Z,23.71
2023-04-15T18:02:59.628Z,24.03
2023-04-15T18:05:46.835Z,24.05
2023-04-15T18:08:33.925Z,23.78
2023-04-15T18:11:21.243Z,23.71
2023-04-15T18:14:08.311Z,23.63
2023-04-15T18:16:55.425Z,23.78
2023-04-15T18:19:43.584Z,24.04
2023-04-15T18:22:18.275Z,24.39
2023-04-15T18:24:45.447Z,23.80
2023-04-15T18:27:12.679Z,23.98
2023-04-15T18:29:39.937Z,24.22
2023-04-15T18:32:07.181Z,24.36
2023-04-15T18:34:34.500Z,23.94
2023-04-15T18:37:01.859Z,24.68
2023-04-15T18:39:29.392Z,24.20
2023-04-15T18:41:57.365Z,24.27
2023-04-15T18:44:24.547Z,24.63
2023-04-15T18:46:51.848Z,24.24
2023-04-15T18:49:19.086Z,24.90
2023-04-15T18:51:46.537Z,24.50
2023-04-15T18:54:15.005Z,24.69
2023-04-15T18:56:42.387Z,24.56
2023-04-15T18:59:28.950Z,24.25
2023-04-15T19:02:02.150Z,25.11
2023-04-15T19:04:29.860Z,24.95
2023-04-15T19:06:59.093Z,25.08
2023-04-15T19:09:26.424Z,24.32
2023-04-15T19:11:53.631Z,24.54
2023-04-15T19:14:20.993Z,25.35
2023-04-15T19:16:48.204Z,24.33
2023-04-15T19:19:15.922Z,24.91
2023-04-15T19:21:43.233Z,24.94
2023-04-15T19:24:10.435Z,25.62
2023-04-15T19:26:37.721Z,25.38
2023-04-15T19:29:05.106Z,25.06
2023-04-15T19:31:32.537Z,25.36
2023-04-15T19:34:00.739Z,25.29
2023-04-15T19:36:28.629Z,25.62
2023-04-15T19:38:55.926Z,25.53
2023-04-15T19:41:23.239Z,25.62
2023-04-15T19:43:50.658Z,25.68
2023-04-15T19:46:18.228Z,24.97
2023-04-15T19:48:45.511Z,25.99
2023-04-15T19:51:12.887Z,25.54
2023-04-15T19:53:40.978Z,24.58
2023-04-15T19:56:08.112Z,25.24
2023-04-15T19:58:35.395Z,25.71
2023-04-15T20:01:02.545Z,25.83
2023-04-15T20:03:29.910Z,25.59
2023-04-15T20:05:57.217Z,26.42
2023-04-15T20:08:24.375Z,26.16
2023-04-15T20:10:51.493Z,26.23
2023-04-15T20:13:18.670Z,25.77
2023-04-15T20:15:46.112Z,25.49
2023-04-15T20:18:13.411Z,26.16
2023-04-15T20:20:41.030Z,26.84
2023-04-15T20:23:08.211Z,25.86
2023-04-15T20:25:35.449Z,27.18
2023-04-15T20:28:02.804Z,26.27
2023-04-15T20:30:29.934Z,26.59
2023-04-15T20:32:57.519Z,26.24
2023-04-15T20:35:28.207Z,26.19
2023-04-15T20:37:55.516Z,26.85
2023-04-15T20:40:23.137Z,26.27
2023-04-15T20:42:50.247Z,26.52
2023-04-15T20:45:17.693Z,26.48
2023-04-15T20:47:45.029Z,26.47
2023-04-15T20:50:12.293Z,26.59
2023-04-15T20:52:40.164Z,26.64
2023-04-15T20:55:08.079Z,26.77
2023-04-15T20:57:35.560Z,26.70
2023-04-15T21:00:02.903Z,26.80
2023-04-15T21:02:33.049Z,27.13
2023-04-15T21:05:00.589Z,26.44
2023-04-15T21:07:27.904Z,26.47
2023-04-15T21:09:57.995Z,26.03
2023-04-15T21:12:25.257Z,26.96
2023-04-15T21:14:52.561Z,26.40
2023-04-15T21:17:19.761Z,26.19
2023-04-15T21:19:47.004Z,26.47
2023-04-15T21:22:14.255Z,26.71
2023-04-15T21:24:41.396Z,27.18
2023-04-15T21:27:09.992Z,26.49
2023-04-15T21:29:40.290Z,26.53
2023-04-15T21:32:07.692Z,26.63
2023-04-15T21:34:35.027Z,26.19
2023-04-15T21:37:02.459Z,26.70
2023-04-15T21:39:29.747Z,26.75
2023-04-15T21:41:58.012Z,26.93
2023-04-15T21:44:25.381Z,26.85
2023-04-15T21:46:52.733Z,26.96
2023-04-15T21:49:20.564Z,26.31
2023-04-15T21:51:48.250Z,26.21
2023-04-15T21:54:15.811Z,26.21
2023-04-15T21:56:43.250Z,26.68
2023-04-15T21:59:10.475Z,26.62
2023-04-15T22:01:37.833Z,26.54
2023-04-15T22:04:07.546Z,27.02
2023-04-15T22:06:34.956Z,26.86
2023-04-15T22:09:02.150Z,26.65
2023-04-15T22:11:30.981Z,27.26
2023-04-15T22:13:59.172Z,26.94
2023-04-15T22:16:27.092Z,26.98
2023-04-15T22:18:55.626Z,27.05
2023-04-15T22:21:23.300Z,26.88
2023-04-15T22:23:51.479Z,26.87
2023-04-15T22:26:18.679Z,26.75
2023-04-15T22:28:45.863Z,26.85
2023-04-15T22:31:13.835Z,26.97
2023-04-15T22:33:41.059Z,27.48
2023-04-15T22:36:08.276Z,27.66
2023-04-15T22:38:36.240Z,27.71
2023-04-15T22:41:03.486Z,27.19
2023-04-15T22:43:30.645Z,27.69
2023-04-15T22:45:57.947Z,26.72
2023-04-15T22:48:25.138Z,27.69
2023-04-15T22:50:52.795Z,27.56
2023-04-15T22:53:20.202Z,27.41
2023-04-15T22:55:48.343Z,27.83
2023-04-15T22:58:18.393Z,27.73
2023-04-15T23:00:46.200Z,28.00
2023-04-15T23:03:13.561Z,27.49
2023-04-15T23:05:41.440Z,28.06
2023-04-15T23:08:08.798Z,27.77
2023-04-15T23:10:36.009Z,28.25
2023-04-15T23:13:03.172Z,28.13
2023-04-15T23:15:30.416Z,27.96
2023-04-15T23:17:57.806Z,28.20
2023-04-15T23:20:24.991Z,27.85
2023-04-15T23:22:52.140Z,28.70
2023-04-15T23:25:22.349Z,28.81
2023-04-15T23:27:49.645Z,28.51
2023-04-15T23:30:16.909Z,28.51
2023-04-15T23:32:44.083Z,28.33
2023-04-15T23:35:11.377Z,27.88
2023-04-15T23:37:38.659Z,28.35
2023-04-15T23:40:06.662Z,28.25
2023-04-15T23:42:33.885Z,28.23
2023-04-15T23:45:01.018Z,28.75
2023-04-15T23:47:28.392Z,29.40
2023-04-15T23:49:55.582Z,28.80
2023-04-15T23:52:23.012Z,29.28
2023-04-15T23:54:50.412Z,29.22
2023-04-15T23:57:18.824Z,28.77
2023-04-15T23:59:46.321Z,29.36
